Sonora Municipal Airport Sonora US
ICAO: KSOA
IATA: SOA
Category: Medium
Scheduled Services: No

Elevation: 2140 ft
TransAlt. 18000 ft.

Airport Communications:
AWOS 3:118.075
HOUSTON CNTR:125.75
CTAF/UNICOM:122.8

KSOA Zoom In..

If you have problems with the map follow the link
https://www.worldairports.se/pages/airport.php?
ICAO=KSOA

Runways:

(A) RW 18 length 4037 ft width 60 ft
---- / hdg 182

(B) RW 36 length 4037 ft width 60 ft
---- / hdg 2

Location; KSOA
Day. 18 / Time. 02.35 Zulu
* Altimeter: 30.15
* Temperature: 10° c. 50°f.
* Wind from: 000° Speed 00 kn.
Dewpoint: 10° c.
Visibility: 1/4 Statute Miles.
Clouds: Overcast 100 ft.
Conditions: Fog.

KSOA 180235Z AUTO 00000KT 1/4SM FG OVC001 10/10 A3015 RMK AO2


Wind - Calm.

 
 
jpsmedia worldairports.se 2020   terms of use